To NAV CANADA Home Page Login to a new session Search on AWWS site Feedback and Comments Disclaimer Vers la page française équivalente Tips FAQ What's new on the site To the Forecasts and Observations / NOTAM section To "File a Flight Plan" website Publications and other links Update of the User's profile FIC Telephone Numbers My Weather Data Folder Route Weather Data Regional Weather Data Local Weather Data To the Forecasts and Observations / NOTAM section
Request Generated 04/20/2014 at 03:10:43 UTC . Weather information available at that time is displayed.

METAR/TAF

CAPE DORSET/NU    

METAR CYTE 200300Z AUTO 28005KT 9SM OVC012 M09/M10 A2999 RMK SLP160=
METAR CYTE 200200Z AUTO 27005KT 9SM OVC012 M09/M11 A2998 RMK SLP157=
SPECI CYTE 200116Z AUTO 27007KT 9SM BKN012 M09/M11 A2998 RMK SLP157=
METAR CYTE 200100Z AUTO 27012KT 9SM CLR M09/M11 A2997 RMK SLP153=

TAF CYTE 200038Z 2001/2013 27012KT P6SM SCT015 TEMPO 2001/2005 BKN015
FM200500 27010KT P6SM BKN015 TEMPO 2005/2013 3SM -SN
RMK FCST BASED ON AUTO OBS. NXT FCST BY 200700Z=
Your time UTC time
Weather data provided by Environment Canada and NAV CANADA